Preview of NWS' New Version of Forecast
This preview is not operational and should not be used for support decisions.

Terminal Aerodrome Forecast (TAF)

Issued by National Weather Service (NWS)

                            
000
FTUS42 KKEY 271720
TAFEYW
TAF
KEYW 271720Z 2718/2818 20020G32KT P6SM VCSH SCT010 SCT015 BKN050
      TEMPO 2718/2719 22025G38KT 1/2SM +TSRA FG BKN010CB OVC020=